createdAt,value
2018-12-11T00:07:28.578Z,1016.8
2018-12-11T00:17:41.770Z,1016.7
2018-12-11T00:27:55.968Z,1016.7
2018-12-11T00:38:09.352Z,1016.7
2018-12-11T00:48:22.217Z,1016.7
2018-12-11T00:58:35.705Z,1016.7
2018-12-11T01:08:48.998Z,1016.7
2018-12-11T01:19:33.324Z,1016.7
2018-12-11T01:29:46.652Z,1016.8
2018-12-11T01:40:31.672Z,1016.9
2018-12-11T01:50:45.027Z,1016.9
2018-12-11T02:00:59.121Z,1016.9
2018-12-11T02:11:43.720Z,1016.9
2018-12-11T02:21:56.809Z,1017.0
2018-12-11T02:32:10.159Z,1016.9
2018-12-11T02:42:23.316Z,1016.9
2018-12-11T02:52:36.594Z,1016.9
2018-12-11T03:03:21.283Z,1016.9
2018-12-11T03:14:06.170Z,1017.0
2018-12-11T03:24:50.611Z,1016.8
2018-12-11T03:35:35.628Z,1016.9
2018-12-11T03:45:48.635Z,1016.8
2018-12-11T03:56:01.722Z,1016.8
2018-12-11T04:06:15.348Z,1016.7
2018-12-11T04:16:28.537Z,1016.9
2018-12-11T04:26:41.421Z,1017.0
2018-12-11T04:36:55.044Z,1017.0
2018-12-11T04:47:08.466Z,1017.1
2018-12-11T04:57:22.202Z,1016.9
2018-12-11T05:07:35.295Z,1017.0
2018-12-11T05:17:48.533Z,1016.8
2018-12-11T05:28:33.491Z,1016.9
2018-12-11T05:38:46.422Z,1016.9
2018-12-11T05:48:59.628Z,1017.0
2018-12-11T05:59:12.861Z,1017.0
2018-12-11T06:09:25.851Z,1016.9
2018-12-11T06:19:39.161Z,1017.0
2018-12-11T06:29:52.615Z,1017.1
2018-12-11T06:40:05.572Z,1017.2
2018-12-11T06:50:19.153Z,1017.2
2018-12-11T07:00:32.287Z,1017.2
2018-12-11T07:10:45.772Z,1017.3
2018-12-11T07:20:59.595Z,1017.3
2018-12-11T07:31:12.807Z,1017.4
2018-12-11T07:41:26.071Z,1017.5
2018-12-11T07:52:10.900Z,1017.5
2018-12-11T08:02:23.923Z,1017.5
2018-12-11T08:12:37.125Z,1017.6
2018-12-11T08:22:50.288Z,1017.7
2018-12-11T08:33:03.725Z,1017.7
2018-12-11T08:43:14.670Z,1017.8
2018-12-11T08:53:28.148Z,1017.9
2018-12-11T09:03:41.088Z,1018.0
2018-12-11T09:13:54.439Z,1017.9
2018-12-11T09:24:40.308Z,1017.9
2018-12-11T09:35:05.040Z,1018.0
2018-12-11T09:46:19.141Z,1018.0
2018-12-11T09:56:33.832Z,1018.1
2018-12-11T10:06:58.090Z,1018.0
2018-12-11T10:18:27.801Z,1018.0
2018-12-11T10:29:28.063Z,1018.0
2018-12-11T10:41:29.188Z,1018.0
2018-12-11T10:51:47.610Z,1018.1
2018-12-11T11:02:02.439Z,1018.0
2018-12-11T11:12:20.855Z,1017.8
2018-12-11T11:23:10.941Z,1017.9
2018-12-11T11:33:27.815Z,1017.8
2018-12-11T11:43:42.904Z,1017.7
2018-12-11T11:54:35.746Z,1017.4
2018-12-11T12:04:53.000Z,1017.6
2018-12-11T12:15:50.128Z,1017.7
2018-12-11T14:02:44.185Z,1017.5
2018-12-11T14:13:50.310Z,1017.5
2018-12-11T14:24:07.150Z,1017.6
2018-12-11T14:34:23.749Z,1017.7
2018-12-11T14:45:12.582Z,1017.6
2018-12-11T14:56:08.738Z,1017.7
2018-12-11T15:16:46.355Z,1017.8
2018-12-11T15:27:31.468Z,1017.8
2018-12-11T15:37:44.844Z,1017.8
2018-12-11T15:47:57.931Z,1017.9
2018-12-11T15:58:11.146Z,1017.9
2018-12-11T16:08:24.369Z,1018.1
2018-12-11T16:18:37.870Z,1018.1
2018-12-11T16:28:50.997Z,1018.2
2018-12-11T16:39:02.261Z,1018.2
2018-12-11T16:49:47.114Z,1018.4
2018-12-11T17:00:00.381Z,1018.4
2018-12-11T17:10:14.329Z,1018.4
2018-12-11T17:20:27.651Z,1018.5
2018-12-11T17:30:40.905Z,1018.6
2018-12-11T17:43:23.203Z,1018.7
2018-12-11T17:54:55.245Z,1018.6
2018-12-11T18:05:08.445Z,1018.8
2018-12-11T18:15:52.767Z,1018.7
2018-12-11T18:26:06.210Z,1018.9
2018-12-11T18:52:34.352Z,1019.0
2018-12-11T19:03:06.062Z,1019.1
2018-12-11T19:13:19.993Z,1019.0
2018-12-11T19:23:33.858Z,1019.1
2018-12-11T19:34:35.874Z,1019.1
2018-12-11T19:58:22.014Z,1019.1
2018-12-11T20:08:35.960Z,1019.2
2018-12-11T20:18:49.308Z,1019.3
2018-12-11T20:29:34.876Z,1019.4
2018-12-11T20:39:48.167Z,1019.4
2018-12-11T20:50:01.637Z,1019.5
2018-12-11T21:00:47.035Z,1019.5
2018-12-11T21:10:58.599Z,1019.4
2018-12-11T21:21:12.564Z,1019.5
2018-12-11T21:31:25.999Z,1019.6
2018-12-11T21:41:37.020Z,1019.8
2018-12-11T21:51:50.413Z,1019.8
2018-12-11T22:02:03.525Z,1019.7
2018-12-11T22:12:17.838Z,1019.8
2018-12-11T22:22:30.905Z,1019.7
2018-12-11T22:32:44.258Z,1019.8
2018-12-11T22:43:28.858Z,1019.8
2018-12-11T22:53:42.162Z,1019.8
2018-12-11T23:03:55.345Z,1019.8
2018-12-11T23:14:08.448Z,1019.9
2018-12-11T23:24:21.447Z,1020.1
2018-12-11T23:34:32.943Z,1020.1
2018-12-11T23:44:44.196Z,1020.2
2018-12-11T23:54:57.574Z,1020.1
